Royal, IA

7:57 PM CDT on August 24, 2016 (GMT -0500)
Spencer Municipal | | Change Station

Elev 1339 ft 43.17 °N, 95.20 °W | Updated 4 minutes ago

Clear
Clear
67 °F
Feels Like 67 °F
N
7
Wind Variable Wind from West

Today
High -- | Low -- °F
--% Chance of Precip.
Yesterday
High -- | Low -- °F
Precip. -- in
Pressure 30.04 in
Visibility 10.0 miles
Clouds Clear
Dew Point 62 °F
Humidity 84%
Rainfall 0.12 in
Snow Depth Not available.
6:37 AM 8:08 PM
Waning Gibbous, 51% visible
METAR KSPW 250053Z AUTO 26006KT 10SM CLR 19/17 A3006 RMK AO2 SLP173 T01940167
Pressure 30.04 in
Visibility 10.0 miles
Clouds Clear
Dew Point 62 °F
Humidity 84%
Rainfall 0.12 in
Snow Depth Not available.
6:37 AM 8:08 PM
Waning Gibbous, 51% visible
METAR KSPW 250053Z AUTO 26006KT 10SM CLR 19/17 A3006 RMK AO2 SLP173 T01940167

10-Day Weather Forecast

Almanac

Astronomy

Aug. 24, 2016 Rise Set
Actual Time
Civil Twilight
Nautical Twilight
Astronomical Twilight
Moon
Length of Visible Light
Length of Day
Tomorrow will be .
, % of the Moon is Illuminated

Today's Extremes

State Highs State Lows

Community

WunderPhotos

Upload Photos

1,934,748 photos uploaded!

WunderBlog® & News

Nearby

Air Quality

  Air Quality AQ Index Pollutant
Not available.

Snow Depth

Station Depth Elevation

Earthquake Activity

City Distance Mag. Time & Date
Minimum magnitude displayed is 2.5.

Coastal Water Temperatures

Place Temperature

Stations

Nearby Weather Stations

Station Location Temp. Windchill Dew Point Humidity Wind Precip. Elev Updated Type
                   

Watches & Warnings

There are currently no watches in effect.